Terminal Aerodrome Forecast
Issued by NWS

Home | Current Version | Previous Version | Text Only | Print | Product List | Glossary On
Versions: 1 2 3 4 5 6 7 8 9 10 11 12 13 14 15
000
FTUS43 KDMX 270306 AAA
TAFOTM
TAF AMD
KOTM 270306Z 2703/2724 33014KT P6SM -RA OVC019
     FM270800 31010G17KT P6SM OVC018
     FM271000 30011G17KT P6SM OVC021
     FM271600 29012G18KT P6SM BKN035
     FM272300 26008KT P6SM SCT110=

USA.gov is the U.S. government's official web portal to all federal, state and local government web resources and services.